createdAt,value
2022-10-21T00:00:09.735Z,68.60
2022-10-21T00:02:40.450Z,69.30
2022-10-21T00:05:08.025Z,69.60
2022-10-21T00:07:35.260Z,69.80
2022-10-21T00:10:02.858Z,69.90
2022-10-21T00:12:30.134Z,70.00
2022-10-21T00:14:57.350Z,70.20
2022-10-21T00:17:24.312Z,70.10
2022-10-21T00:19:51.287Z,70.20
2022-10-21T00:22:18.015Z,70.30
2022-10-21T00:24:44.676Z,70.60
2022-10-21T00:27:11.449Z,70.60
2022-10-21T00:29:38.280Z,70.30
2022-10-21T00:32:05.121Z,70.20
2022-10-21T00:34:32.405Z,71.20
2022-10-21T00:36:59.285Z,71.00
2022-10-21T00:39:26.031Z,71.50
2022-10-21T00:41:52.804Z,71.70
2022-10-21T00:44:19.504Z,71.80
2022-10-21T00:46:53.954Z,72.20
2022-10-21T00:49:40.792Z,72.10
2022-10-21T00:52:13.344Z,72.00
2022-10-21T00:54:42.153Z,71.90
2022-10-21T00:57:09.696Z,71.70
2022-10-21T00:59:51.584Z,71.60
2022-10-21T01:02:18.637Z,71.80
2022-10-21T01:04:46.285Z,71.80
2022-10-21T01:07:13.232Z,71.80
2022-10-21T01:09:39.935Z,71.60
2022-10-21T01:12:30.037Z,71.50
2022-10-21T01:18:11.158Z,71.20
2022-10-21T01:21:03.248Z,71.20
2022-10-21T01:23:43.992Z,71.10
2022-10-21T01:26:31.906Z,70.70
2022-10-21T01:29:16.933Z,70.70
2022-10-21T01:31:46.929Z,70.80
2022-10-21T01:34:28.926Z,70.50
2022-10-21T01:37:03.271Z,70.80
2022-10-21T01:39:45.199Z,70.50
2022-10-21T01:42:27.705Z,70.40
2022-10-21T01:45:03.379Z,70.40
2022-10-21T01:47:37.618Z,70.40
2022-10-21T01:50:22.555Z,71.30
2022-10-21T01:52:52.398Z,70.60
2022-10-21T01:55:23.361Z,70.50
2022-10-21T01:57:54.641Z,70.50
2022-10-21T02:00:21.485Z,70.30
2022-10-21T02:02:49.605Z,70.00
2022-10-21T02:05:22.827Z,69.90
2022-10-21T02:07:49.988Z,69.80
2022-10-21T02:10:18.786Z,69.90
2022-10-21T02:12:49.105Z,69.80
2022-10-21T02:15:17.836Z,69.70
2022-10-21T02:17:51.810Z,69.60
2022-10-21T02:20:19.357Z,69.80
2022-10-21T02:22:47.964Z,69.80
2022-10-21T02:25:22.486Z,69.80
2022-10-21T02:27:50.777Z,69.70
2022-10-21T02:30:17.775Z,69.50
2022-10-21T02:32:57.802Z,69.40
2022-10-21T02:35:30.545Z,69.20
2022-10-21T02:38:05.955Z,69.00
2022-10-21T02:40:55.823Z,68.90
2022-10-21T02:43:30.628Z,68.90
2022-10-21T02:46:05.473Z,68.90
2022-10-21T02:48:37.027Z,68.80
2022-10-21T02:51:05.685Z,68.50
2022-10-21T02:53:33.736Z,68.50
2022-10-21T02:56:02.033Z,68.30
2022-10-21T02:58:29.385Z,68.30
2022-10-21T03:00:56.248Z,68.30
2022-10-21T03:03:23.102Z,68.10
2022-10-21T03:05:49.820Z,67.90
2022-10-21T03:08:16.708Z,67.80
2022-10-21T03:10:43.617Z,67.70
2022-10-21T03:13:10.362Z,68.40
2022-10-21T03:15:37.067Z,67.50
2022-10-21T03:18:03.743Z,67.40
2022-10-21T03:20:30.443Z,67.20
2022-10-21T03:22:57.144Z,67.10
2022-10-21T03:25:23.877Z,67.00
2022-10-21T03:27:51.223Z,67.00
2022-10-21T03:30:18.279Z,67.00
2022-10-21T03:32:45.020Z,66.90
2022-10-21T03:35:11.861Z,66.90
2022-10-21T03:37:38.573Z,66.80
2022-10-21T03:40:08.661Z,67.00
2022-10-21T03:42:38.534Z,67.10
2022-10-21T03:45:05.818Z,67.00
2022-10-21T03:47:32.631Z,67.00
2022-10-21T03:49:59.374Z,66.90
2022-10-21T03:52:26.097Z,66.80
2022-10-21T03:54:52.785Z,66.80
2022-10-21T03:57:19.558Z,66.70
2022-10-21T03:59:46.257Z,66.60
2022-10-21T04:02:13.036Z,66.50
2022-10-21T04:04:39.748Z,66.40
2022-10-21T04:07:06.470Z,66.40
2022-10-21T04:09:33.307Z,66.40
2022-10-21T04:12:00.054Z,66.30
2022-10-21T04:14:27.344Z,66.30
2022-10-21T04:17:06.501Z,66.30
2022-10-21T04:19:33.877Z,66.20
2022-10-21T04:22:00.595Z,66.20
2022-10-21T04:24:27.327Z,66.20
2022-10-21T04:26:54.021Z,66.30
2022-10-21T04:29:20.887Z,66.30
2022-10-21T04:31:47.726Z,66.30
2022-10-21T04:34:14.508Z,66.30
2022-10-21T04:36:41.247Z,66.50
2022-10-21T04:39:08.187Z,66.40
2022-10-21T04:41:34.996Z,66.40
2022-10-21T04:44:02.628Z,66.40
2022-10-21T04:46:29.393Z,66.40
2022-10-21T04:48:56.165Z,66.30
2022-10-21T04:51:23.455Z,66.30
2022-10-21T04:53:50.250Z,66.40
2022-10-21T04:56:17.043Z,66.80
2022-10-21T04:58:43.824Z,67.00
2022-10-21T05:01:10.933Z,67.30
2022-10-21T05:03:37.930Z,67.50
2022-10-21T05:06:05.022Z,67.70
2022-10-21T05:08:31.873Z,67.70
2022-10-21T05:11:00.750Z,67.70
2022-10-21T05:13:28.850Z,67.80
2022-10-21T05:16:03.100Z,67.80
2022-10-21T05:18:30.760Z,67.90
2022-10-21T05:20:57.730Z,67.90
2022-10-21T05:23:25.880Z,68.00
2022-10-21T05:25:52.939Z,67.90
2022-10-21T05:28:20.651Z,67.70
2022-10-21T05:30:47.474Z,67.70
2022-10-21T05:33:14.360Z,67.70
2022-10-21T05:35:41.287Z,67.60
2022-10-21T05:38:08.017Z,67.80
2022-10-21T05:40:34.871Z,67.80
2022-10-21T05:43:01.641Z,67.90
2022-10-21T05:45:28.451Z,68.00
2022-10-21T05:47:55.321Z,68.00
2022-10-21T05:50:22.080Z,68.10
2022-10-21T05:52:48.843Z,68.40
2022-10-21T05:55:15.802Z,68.40
2022-10-21T05:57:42.659Z,68.30
2022-10-21T06:00:10.247Z,68.40
2022-10-21T06:02:37.208Z,68.40
2022-10-21T06:05:04.552Z,68.30
2022-10-21T06:07:31.304Z,68.20
2022-10-21T06:09:58.060Z,68.20
2022-10-21T06:12:24.915Z,68.20
2022-10-21T06:14:51.696Z,67.90
2022-10-21T06:17:19.470Z,67.60
2022-10-21T06:19:50.051Z,67.50
2022-10-21T06:22:17.865Z,67.50
2022-10-21T06:24:45.617Z,67.40
2022-10-21T06:27:12.527Z,67.40
2022-10-21T06:29:39.599Z,67.30
2022-10-21T06:32:06.324Z,67.20
2022-10-21T06:34:33.103Z,67.00
2022-10-21T06:36:59.828Z,66.90
2022-10-21T06:39:26.495Z,66.70
2022-10-21T06:41:53.178Z,66.70
2022-10-21T06:44:39.396Z,66.60
2022-10-21T06:47:06.083Z,66.50
2022-10-21T06:49:32.778Z,66.40
2022-10-21T06:51:59.591Z,66.40
2022-10-21T06:54:26.417Z,66.30
2022-10-21T06:56:53.202Z,66.20
2022-10-21T06:59:20.164Z,66.10
2022-10-21T07:01:59.868Z,66.00
2022-10-21T07:04:27.644Z,66.00
2022-10-21T07:06:54.369Z,65.90
2022-10-21T07:09:21.589Z,65.80
2022-10-21T07:11:48.575Z,65.70
2022-10-21T07:14:15.408Z,65.70
2022-10-21T07:16:42.244Z,65.90
2022-10-21T07:19:10.666Z,66.00
2022-10-21T07:21:37.477Z,66.00
2022-10-21T07:24:04.303Z,66.20
2022-10-21T07:26:33.199Z,66.10
2022-10-21T07:29:01.082Z,66.10
2022-10-21T07:31:31.037Z,66.00
2022-10-21T07:33:59.900Z,65.90
2022-10-21T07:36:29.230Z,65.90
2022-10-21T07:38:59.227Z,65.70
2022-10-21T07:41:29.743Z,65.70
2022-10-21T07:43:57.422Z,65.80
2022-10-21T07:46:24.358Z,65.90
2022-10-21T07:48:51.700Z,66.00
2022-10-21T07:51:26.931Z,66.20
2022-10-21T07:53:58.662Z,66.40
2022-10-21T07:56:31.564Z,66.50
2022-10-21T07:58:58.372Z,66.70
2022-10-21T08:01:25.531Z,66.70
2022-10-21T08:03:54.865Z,66.80
2022-10-21T08:06:23.662Z,67.10
2022-10-21T08:08:50.568Z,67.20
2022-10-21T08:11:23.598Z,67.20
2022-10-21T08:13:50.414Z,67.20
2022-10-21T08:16:17.419Z,67.10
2022-10-21T08:18:44.179Z,67.00
2022-10-21T08:21:11.140Z,67.10
2022-10-21T08:23:38.230Z,67.10
2022-10-21T08:26:08.586Z,67.00
2022-10-21T08:28:35.288Z,67.00
2022-10-21T08:31:06.962Z,66.90
2022-10-21T08:33:34.755Z,66.80
2022-10-21T08:36:10.093Z,66.80
2022-10-21T08:38:36.861Z,67.00
2022-10-21T08:41:25.932Z,66.90
2022-10-21T08:43:54.360Z,67.00
2022-10-21T08:46:26.992Z,66.80
2022-10-21T08:49:02.667Z,67.00
2022-10-21T08:51:37.685Z,67.10
2022-10-21T08:54:12.846Z,67.00
2022-10-21T08:56:40.441Z,67.10
2022-10-21T08:59:20.554Z,67.20
2022-10-21T09:01:59.869Z,67.30
2022-10-21T09:04:53.699Z,67.20
2022-10-21T09:07:32.603Z,67.10
2022-10-21T09:10:04.806Z,66.90
2022-10-21T09:12:58.738Z,66.70
2022-10-21T09:15:53.656Z,66.70
2022-10-21T09:19:05.167Z,66.50
2022-10-21T09:22:01.513Z,66.30
2022-10-21T09:24:52.496Z,66.30
2022-10-21T09:27:27.024Z,66.50
2022-10-21T09:30:07.312Z,66.20
2022-10-21T09:32:40.447Z,66.10
2022-10-21T09:35:22.547Z,66.20
2022-10-21T09:37:57.641Z,66.20
2022-10-21T09:40:28.287Z,66.30
2022-10-21T09:42:58.867Z,66.40
2022-10-21T09:45:32.203Z,66.40
2022-10-21T09:48:10.506Z,66.40
2022-10-21T09:50:38.137Z,66.20
2022-10-21T09:53:11.728Z,66.40
2022-10-21T09:55:40.303Z,66.50
2022-10-21T09:58:07.201Z,66.40
2022-10-21T10:00:50.043Z,66.30
2022-10-21T10:03:31.412Z,66.40
2022-10-21T10:05:58.705Z,66.20
2022-10-21T10:08:30.797Z,66.10
2022-10-21T10:11:10.834Z,66.10
2022-10-21T10:13:40.872Z,66.20
2022-10-21T10:16:19.464Z,66.20
2022-10-21T10:18:46.235Z,66.20
2022-10-21T10:21:13.985Z,66.20
2022-10-21T10:23:55.500Z,66.30
2022-10-21T10:26:32.675Z,66.50
2022-10-21T10:29:08.396Z,66.50
2022-10-21T10:31:36.917Z,66.50
2022-10-21T10:34:07.610Z,67.00
2022-10-21T10:36:40.079Z,66.30
2022-10-21T10:39:19.497Z,66.50
2022-10-21T10:41:49.467Z,66.70
2022-10-21T10:44:28.064Z,66.50
2022-10-21T10:46:57.322Z,66.50
2022-10-21T10:49:26.640Z,66.40
2022-10-21T10:52:11.682Z,66.40
2022-10-21T10:54:40.465Z,66.50
2022-10-21T10:57:29.954Z,66.30
2022-10-21T11:00:19.979Z,66.50
2022-10-21T11:03:06.209Z,66.30
2022-10-21T11:05:46.817Z,66.20
2022-10-21T11:08:19.432Z,66.20
2022-10-21T11:11:11.297Z,66.90
2022-10-21T11:13:42.082Z,66.50
2022-10-21T11:16:59.017Z,66.40
2022-10-21T11:19:35.272Z,66.50
2022-10-21T11:22:43.650Z,66.10
2022-10-21T11:25:36.215Z,66.60
2022-10-21T11:28:14.430Z,67.30
2022-10-21T11:31:05.869Z,66.10
2022-10-21T11:34:04.592Z,65.60
2022-10-21T11:36:40.656Z,65.30
2022-10-21T11:39:21.612Z,64.20
2022-10-21T11:41:55.308Z,63.50
2022-10-21T11:45:30.317Z,63.20
2022-10-21T11:48:16.911Z,64.60
2022-10-21T11:50:50.294Z,63.70
2022-10-21T11:53:39.978Z,63.10
2022-10-21T11:56:06.816Z,63.30
2022-10-21T11:58:48.643Z,63.00
2022-10-21T12:01:29.103Z,63.00
2022-10-21T12:04:23.022Z,62.80
2022-10-21T12:06:55.834Z,64.20
2022-10-21T12:09:30.737Z,64.00
2022-10-21T12:12:06.216Z,64.30
2022-10-21T12:14:37.180Z,64.10
2022-10-21T12:17:09.162Z,63.80
2022-10-21T12:19:36.659Z,63.70
2022-10-21T12:22:03.978Z,63.20
2022-10-21T12:24:39.221Z,63.10
2022-10-21T12:27:23.504Z,63.10
2022-10-21T12:30:05.813Z,63.20
2022-10-21T12:33:04.779Z,63.10
2022-10-21T12:36:15.783Z,63.10
2022-10-21T12:38:47.946Z,63.50
2022-10-21T12:41:23.708Z,63.00
2022-10-21T12:44:02.733Z,63.40
2022-10-21T12:46:42.254Z,63.20
2022-10-21T12:49:32.772Z,63.20
2022-10-21T12:52:02.529Z,63.50
2022-10-21T12:54:35.761Z,63.30
2022-10-21T12:57:05.805Z,63.00
2022-10-21T12:59:41.608Z,63.20
2022-10-21T13:02:19.887Z,63.50
2022-10-21T13:04:49.143Z,63.30
2022-10-21T13:07:15.800Z,63.20
2022-10-21T13:10:02.781Z,63.00
2022-10-21T13:12:32.417Z,63.30
2022-10-21T13:15:01.919Z,63.30
2022-10-21T13:17:32.544Z,63.40
2022-10-21T13:20:25.780Z,63.30
2022-10-21T13:23:03.510Z,63.70
2022-10-21T13:25:35.286Z,63.30
2022-10-21T13:28:13.958Z,63.90
2022-10-21T13:30:58.648Z,63.10
2022-10-21T13:33:29.895Z,62.50
2022-10-21T13:36:12.934Z,62.20
2022-10-21T13:38:50.330Z,62.30
2022-10-21T13:41:26.875Z,62.20
2022-10-21T13:44:05.589Z,61.90
2022-10-21T13:46:43.346Z,61.70
2022-10-21T13:49:32.115Z,61.40
2022-10-21T13:51:59.304Z,61.10
2022-10-21T13:54:26.245Z,60.90
2022-10-21T13:56:53.065Z,61.00
2022-10-21T13:59:24.680Z,60.70
2022-10-21T14:01:57.015Z,60.80
2022-10-21T14:04:30.233Z,61.60
2022-10-21T14:07:09.143Z,62.30
2022-10-21T14:09:42.239Z,62.60
2022-10-21T14:12:22.440Z,63.00
2022-10-21T14:14:50.112Z,63.10
2022-10-21T14:17:23.873Z,63.20
2022-10-21T14:19:53.934Z,63.50
2022-10-21T14:22:24.831Z,63.60
2022-10-21T14:24:56.659Z,63.90
2022-10-21T14:27:29.913Z,64.00
2022-10-21T14:29:58.071Z,64.50
2022-10-21T14:32:26.842Z,64.50
2022-10-21T14:35:08.661Z,64.50
2022-10-21T14:37:47.345Z,64.50
2022-10-21T14:40:31.723Z,64.70
2022-10-21T14:43:19.905Z,64.70
2022-10-21T14:45:55.777Z,65.00
2022-10-21T14:48:37.420Z,65.00
2022-10-21T14:51:11.228Z,64.70
2022-10-21T14:53:49.643Z,65.00
2022-10-21T14:56:20.971Z,65.00
2022-10-21T14:58:57.077Z,65.10
2022-10-21T15:01:24.507Z,64.90
2022-10-21T15:03:59.940Z,65.00
2022-10-21T15:06:34.814Z,65.10
2022-10-21T15:09:07.804Z,65.10
2022-10-21T15:11:46.583Z,65.30
2022-10-21T15:14:13.228Z,65.40
2022-10-21T15:16:53.786Z,65.50
2022-10-21T15:19:41.163Z,65.60
2022-10-21T15:22:29.720Z,65.70
2022-10-21T15:25:05.713Z,65.70
2022-10-21T15:27:40.130Z,65.60
2022-10-21T15:30:17.427Z,65.60
2022-10-21T15:32:44.351Z,65.80
2022-10-21T15:35:16.885Z,65.90
2022-10-21T15:37:47.032Z,66.00
2022-10-21T15:40:13.994Z,65.90
2022-10-21T15:42:41.413Z,65.70
2022-10-21T15:45:15.011Z,65.70
2022-10-21T15:47:41.910Z,65.60
2022-10-21T15:50:16.481Z,65.50
2022-10-21T15:52:43.717Z,65.60
2022-10-21T15:55:11.040Z,65.60
2022-10-21T15:57:38.933Z,65.50
2022-10-21T16:00:21.535Z,65.40
2022-10-21T16:02:49.643Z,65.30
2022-10-21T16:05:16.478Z,65.10
2022-10-21T16:07:44.481Z,64.90
2022-10-21T16:10:29.446Z,64.80
2022-10-21T16:12:56.700Z,64.70
2022-10-21T16:15:24.972Z,64.70
2022-10-21T16:17:55.665Z,64.70
2022-10-21T16:20:30.995Z,64.60
2022-10-21T16:23:01.981Z,65.40
2022-10-21T16:25:30.472Z,64.50
2022-10-21T16:27:57.587Z,64.50
2022-10-21T16:30:33.535Z,64.40
2022-10-21T16:33:00.552Z,64.40
2022-10-21T16:35:27.773Z,64.40
2022-10-21T16:37:56.112Z,64.40
2022-10-21T16:40:29.082Z,64.50
2022-10-21T16:42:55.975Z,64.60
2022-10-21T16:45:27.217Z,64.80
2022-10-21T16:47:56.930Z,64.80
2022-10-21T16:50:32.023Z,64.50
2022-10-21T16:52:58.831Z,64.60
2022-10-21T16:55:25.608Z,64.70
2022-10-21T16:57:52.351Z,64.80
2022-10-21T17:00:19.157Z,65.00
2022-10-21T17:02:49.201Z,65.00
2022-10-21T17:05:16.229Z,65.30
2022-10-21T17:07:43.291Z,65.50
2022-10-21T17:10:10.879Z,65.70
2022-10-21T17:12:37.717Z,65.90
2022-10-21T17:15:05.294Z,66.10
2022-10-21T17:17:32.459Z,66.20
2022-10-21T17:19:59.261Z,66.30
2022-10-21T17:22:26.031Z,66.10
2022-10-21T17:24:52.719Z,66.30
2022-10-21T17:27:19.865Z,66.30
2022-10-21T17:29:46.658Z,66.30
2022-10-21T17:32:13.452Z,66.30
2022-10-21T17:34:41.020Z,66.40
2022-10-21T17:37:11.209Z,66.50
2022-10-21T17:39:38.209Z,66.60
2022-10-21T17:42:04.985Z,66.70
2022-10-21T17:44:31.776Z,66.70
2022-10-21T17:46:58.581Z,66.80
2022-10-21T17:49:26.476Z,67.00
2022-10-21T17:51:53.471Z,67.10
2022-10-21T17:54:24.191Z,67.20
2022-10-21T17:56:56.546Z,67.30
2022-10-21T17:59:23.264Z,67.40
2022-10-21T18:01:50.032Z,67.40
2022-10-21T18:04:16.765Z,67.50
2022-10-21T18:06:43.524Z,67.50
2022-10-21T18:09:10.416Z,67.50
2022-10-21T18:11:37.536Z,67.50
2022-10-21T18:14:04.779Z,67.50
2022-10-21T18:16:31.576Z,67.40
2022-10-21T18:19:01.804Z,67.30
2022-10-21T18:21:30.416Z,67.00
2022-10-21T18:23:57.235Z,67.00
2022-10-21T18:26:27.491Z,67.00
2022-10-21T18:28:57.512Z,67.10
2022-10-21T18:31:28.011Z,67.00
2022-10-21T18:33:55.934Z,67.00
2022-10-21T18:36:23.633Z,67.00
2022-10-21T18:38:50.632Z,67.00
2022-10-21T18:41:20.642Z,67.00
2022-10-21T18:43:56.180Z,67.00
2022-10-21T18:46:23.814Z,66.90
2022-10-21T18:48:51.037Z,67.10
2022-10-21T18:51:19.413Z,67.40
2022-10-21T18:53:49.873Z,67.30
2022-10-21T18:56:20.133Z,67.30
2022-10-21T18:58:46.934Z,67.40
2022-10-21T19:01:17.036Z,67.20
2022-10-21T19:03:44.790Z,67.20
2022-10-21T19:06:36.022Z,67.30
2022-10-21T19:09:06.241Z,67.30
2022-10-21T19:11:33.234Z,67.20
2022-10-21T19:14:00.015Z,67.20
2022-10-21T19:16:26.943Z,67.20
2022-10-21T19:18:54.736Z,67.20
2022-10-21T19:21:22.531Z,67.10
2022-10-21T19:23:50.908Z,67.00
2022-10-21T19:26:21.041Z,67.10
2022-10-21T19:28:49.916Z,66.90
2022-10-21T19:31:18.336Z,67.00
2022-10-21T19:33:45.095Z,67.00
2022-10-21T19:36:11.882Z,67.10
2022-10-21T19:38:44.084Z,67.20
2022-10-21T19:41:15.377Z,67.10
2022-10-21T19:43:42.571Z,67.00
2022-10-21T19:46:10.744Z,67.10
2022-10-21T19:48:37.786Z,67.10
2022-10-21T19:51:05.149Z,67.10
2022-10-21T19:53:34.951Z,66.90
2022-10-21T19:56:04.163Z,67.00
2022-10-21T19:58:31.558Z,67.00
2022-10-21T20:01:09.108Z,67.20
2022-10-21T20:03:40.583Z,67.30
2022-10-21T20:06:16.909Z,67.20
2022-10-21T20:08:43.987Z,67.40
2022-10-21T20:11:16.604Z,67.50
2022-10-21T20:13:44.348Z,67.50
2022-10-21T20:16:16.738Z,67.50
2022-10-21T20:18:43.732Z,67.50
2022-10-21T20:21:10.787Z,67.50
2022-10-21T20:23:37.486Z,67.50
2022-10-21T20:26:04.471Z,67.30
2022-10-21T20:28:31.922Z,67.40
2022-10-21T20:31:10.289Z,67.50
2022-10-21T20:33:41.040Z,67.50
2022-10-21T20:36:12.340Z,67.30
2022-10-21T20:38:39.252Z,67.30
2022-10-21T20:41:09.104Z,67.30
2022-10-21T20:43:37.430Z,67.30
2022-10-21T20:46:06.350Z,67.40
2022-10-21T20:48:34.414Z,67.50
2022-10-21T20:51:06.858Z,67.50
2022-10-21T20:53:34.820Z,67.50
2022-10-21T20:56:03.669Z,67.40
2022-10-21T20:58:33.167Z,67.50
2022-10-21T21:01:10.354Z,67.50
2022-10-21T21:03:39.146Z,67.40
2022-10-21T21:06:07.059Z,67.30
2022-10-21T21:08:41.483Z,67.30
2022-10-21T21:11:21.017Z,67.50
2022-10-21T21:13:48.157Z,67.30
2022-10-21T21:16:17.797Z,67.50
2022-10-21T21:18:50.279Z,67.50
2022-10-21T21:21:19.263Z,67.40
2022-10-21T21:23:46.413Z,67.50
2022-10-21T21:26:14.485Z,67.40
2022-10-21T21:28:41.449Z,67.60
2022-10-21T21:31:10.340Z,67.60
2022-10-21T21:33:37.311Z,67.60
2022-10-21T21:36:04.851Z,67.70
2022-10-21T21:38:33.622Z,67.80
2022-10-21T21:41:01.051Z,67.70
2022-10-21T21:43:29.707Z,68.00
2022-10-21T21:45:56.692Z,68.10
2022-10-21T21:48:23.648Z,68.00
2022-10-21T21:50:50.791Z,67.90
2022-10-21T21:53:19.974Z,67.90
2022-10-21T21:55:47.000Z,67.90
2022-10-21T21:58:14.243Z,67.80
2022-10-21T22:00:40.976Z,67.60
2022-10-21T22:03:07.666Z,67.50
2022-10-21T22:05:34.901Z,67.30
2022-10-21T22:08:02.320Z,67.20
2022-10-21T22:10:29.445Z,67.20
2022-10-21T22:12:56.516Z,67.30
2022-10-21T22:15:50.689Z,67.50
2022-10-21T22:18:11.360Z,67.60
2022-10-21T22:20:40.360Z,67.50
2022-10-21T22:23:07.084Z,67.60
2022-10-21T22:25:33.796Z,67.60
2022-10-21T22:28:00.479Z,67.60
2022-10-21T22:30:27.180Z,67.60
2022-10-21T22:32:53.892Z,67.60
2022-10-21T22:35:20.663Z,67.60
2022-10-21T22:37:47.370Z,67.80
2022-10-21T22:40:14.034Z,67.80
2022-10-21T22:42:40.760Z,67.90
2022-10-21T22:45:08.020Z,68.00
2022-10-21T22:47:35.054Z,67.90
2022-10-21T22:50:01.812Z,67.90
2022-10-21T22:52:28.528Z,67.70
2022-10-21T22:54:55.242Z,67.50
2022-10-21T22:57:21.924Z,67.40
2022-10-21T22:59:53.053Z,67.40
2022-10-21T23:02:20.167Z,67.50
2022-10-21T23:04:46.837Z,67.60
2022-10-21T23:07:13.853Z,67.50
2022-10-21T23:09:40.548Z,67.50
2022-10-21T23:12:07.291Z,67.50
2022-10-21T23:14:34.059Z,67.40
2022-10-21T23:17:00.723Z,67.20
2022-10-21T23:19:27.550Z,67.40
2022-10-21T23:21:54.269Z,67.50
2022-10-21T23:24:21.304Z,67.60
2022-10-21T23:26:48.016Z,67.50
2022-10-21T23:29:14.767Z,67.40
2022-10-21T23:31:41.562Z,67.60
2022-10-21T23:34:09.330Z,67.60
2022-10-21T23:36:36.531Z,67.60
2022-10-21T23:39:03.725Z,67.70
2022-10-21T23:41:30.408Z,67.60
2022-10-21T23:43:57.151Z,67.50
2022-10-21T23:46:24.226Z,67.50
2022-10-21T23:48:50.976Z,67.40
2022-10-21T23:51:17.851Z,67.20
2022-10-21T23:53:45.400Z,67.00
2022-10-21T23:56:12.130Z,67.00
2022-10-21T23:58:38.867Z,67.00
